Terminal Aerodrome Forecast
Issued by NWS

Home | Current Version | Previous Version | Text Only | Print | Product List | Glossary On
Versions: 1 2 3 4 5 6 7 8 9 10 11 12 13 14
468
FTUS43 KIND 052320
TAFBMG
TAF
KBMG 052320Z 0600/0624 10005KT P6SM BKN250
     FM060800 10005KT P6SM VCSH OVC050
     FM061100 07004KT P6SM VCSH OVC015
     FM061200 06004KT 4SM -RA OVC010
     FM061500 36004KT 1 1/2SM -RA OVC008
     FM061800 32007KT P6SM BKN008
      AMD LTD TO CLD VIS AND WIND 0602/0614=

USA.gov is the U.S. government's official web portal to all federal, state and local government web resources and services.